createdAt,value
2022-09-06T00:02:20.329Z,2.10
2022-09-06T00:04:47.137Z,2.30
2022-09-06T00:07:13.942Z,2.50
2022-09-06T00:09:40.774Z,2.10
2022-09-06T00:12:07.874Z,2.20
2022-09-06T00:14:34.641Z,2.00
2022-09-06T00:17:01.428Z,2.20
2022-09-06T00:19:28.202Z,2.10
2022-09-06T00:21:54.973Z,2.10
2022-09-06T00:24:21.715Z,1.90
2022-09-06T00:26:48.554Z,2.10
2022-09-06T00:29:15.419Z,1.60
2022-09-06T00:31:42.212Z,1.90
2022-09-06T00:34:09.130Z,1.80
2022-09-06T00:36:35.939Z,1.90
2022-09-06T00:39:02.948Z,1.90
2022-09-06T00:41:29.750Z,1.90
2022-09-06T00:43:57.068Z,1.90
2022-09-06T00:46:28.971Z,1.70
2022-09-06T00:49:01.436Z,1.90
2022-09-06T00:51:30.547Z,1.90
2022-09-06T00:53:58.399Z,1.80
2022-09-06T00:56:26.561Z,2.20
2022-09-06T00:58:53.582Z,2.10
2022-09-06T01:01:20.428Z,2.10
2022-09-06T01:03:47.584Z,2.00
2022-09-06T01:06:18.383Z,2.00
2022-09-06T01:09:08.872Z,1.80
2022-09-06T01:11:49.707Z,1.70
2022-09-06T01:14:48.056Z,2.00
2022-09-06T01:17:16.838Z,1.90
2022-09-06T01:20:10.636Z,1.80
2022-09-06T01:22:48.818Z,1.60
2022-09-06T01:25:46.969Z,2.10
2022-09-06T01:28:33.606Z,1.80
2022-09-06T01:31:05.492Z,1.80
2022-09-06T01:34:03.637Z,1.90
2022-09-06T01:36:49.716Z,2.00
2022-09-06T01:39:31.174Z,2.40
2022-09-06T01:42:01.533Z,2.20
2022-09-06T01:44:30.607Z,2.30
2022-09-06T01:47:05.375Z,2.60
2022-09-06T01:49:49.163Z,2.20
2022-09-06T01:52:22.017Z,2.90
2022-09-06T01:55:07.322Z,2.50
2022-09-06T01:57:51.805Z,2.90
2022-09-06T02:03:01.244Z,2.80
2022-09-06T02:05:36.346Z,2.90
2022-09-06T02:08:11.036Z,2.40
2022-09-06T02:10:44.893Z,2.70
2022-09-06T02:13:15.458Z,2.70
2022-09-06T02:15:47.715Z,2.60
2022-09-06T02:18:21.754Z,2.20
2022-09-06T02:20:52.510Z,2.20
2022-09-06T02:23:23.426Z,2.50
2022-09-06T02:25:55.053Z,2.90
2022-09-06T02:28:23.175Z,2.20
2022-09-06T02:30:56.482Z,2.20
2022-09-06T02:33:28.616Z,2.70
2022-09-06T02:35:56.030Z,2.60
2022-09-06T02:38:25.073Z,2.60
2022-09-06T02:40:54.100Z,2.30
2022-09-06T02:43:21.857Z,2.70
2022-09-06T02:45:48.755Z,2.90
2022-09-06T02:48:15.710Z,2.40
2022-09-06T02:50:42.668Z,2.20
2022-09-06T02:53:12.408Z,2.40
2022-09-06T02:55:39.969Z,2.40
2022-09-06T02:58:09.013Z,2.20
2022-09-06T03:00:36.019Z,2.20
2022-09-06T03:03:03.939Z,2.30
2022-09-06T03:05:31.190Z,2.10
2022-09-06T03:07:57.989Z,2.40
2022-09-06T03:10:26.342Z,2.30
2022-09-06T03:12:53.636Z,2.30
2022-09-06T03:15:21.006Z,2.00
2022-09-06T03:17:47.895Z,2.00
2022-09-06T03:20:14.991Z,2.30
2022-09-06T03:22:42.189Z,2.10
2022-09-06T03:25:10.449Z,2.30
2022-09-06T03:27:37.775Z,2.10
2022-09-06T03:30:06.333Z,2.10
2022-09-06T03:32:33.322Z,2.20
2022-09-06T03:35:00.151Z,2.40
2022-09-06T03:37:27.417Z,2.10
2022-09-06T03:39:54.814Z,2.00
2022-09-06T03:42:22.027Z,2.30
2022-09-06T03:44:48.918Z,2.40
2022-09-06T03:47:19.487Z,3.30
2022-09-06T03:49:47.621Z,2.70
2022-09-06T03:52:14.897Z,2.50
2022-09-06T03:54:41.706Z,2.70
2022-09-06T03:57:08.870Z,2.90
2022-09-06T03:59:35.747Z,2.70
2022-09-06T04:02:03.522Z,3.10
2022-09-06T04:04:30.372Z,2.80
2022-09-06T04:06:58.058Z,2.80
2022-09-06T04:09:25.285Z,2.60
2022-09-06T04:11:52.304Z,2.70
2022-09-06T04:14:19.441Z,2.90
2022-09-06T04:16:46.419Z,2.50
2022-09-06T04:19:13.319Z,2.30
2022-09-06T04:21:40.561Z,2.80
2022-09-06T04:24:07.508Z,2.40
2022-09-06T04:26:34.653Z,2.50
2022-09-06T04:29:01.738Z,2.50
2022-09-06T04:31:29.270Z,2.60
2022-09-06T04:33:56.218Z,3.50
2022-09-06T04:36:23.483Z,2.70
2022-09-06T04:38:50.490Z,2.40
2022-09-06T04:41:19.489Z,3.00
2022-09-06T04:43:46.410Z,2.50
2022-09-06T04:46:30.288Z,3.30
2022-09-06T04:48:59.174Z,2.70
2022-09-06T04:51:26.312Z,2.60
2022-09-06T04:53:53.579Z,2.70
2022-09-06T04:56:24.411Z,2.80
2022-09-06T04:58:52.866Z,2.70
2022-09-06T05:01:20.889Z,2.80
2022-09-06T05:03:47.977Z,2.60
2022-09-06T05:06:21.945Z,2.60
2022-09-06T05:08:50.101Z,2.80
2022-09-06T05:11:18.158Z,2.90
2022-09-06T05:13:47.157Z,2.70
2022-09-06T05:16:14.357Z,2.70
2022-09-06T05:18:41.974Z,2.60
2022-09-06T05:21:09.042Z,3.00
2022-09-06T05:23:36.237Z,2.60
2022-09-06T05:26:03.880Z,2.70
2022-09-06T05:28:31.175Z,2.90
2022-09-06T05:31:25.949Z,2.50
2022-09-06T05:36:23.401Z,2.20
2022-09-06T05:38:51.488Z,3.00
2022-09-06T05:41:18.968Z,2.70
2022-09-06T05:43:46.839Z,2.50
2022-09-06T05:46:14.362Z,3.00
2022-09-06T05:48:42.162Z,3.10
2022-09-06T05:51:13.332Z,2.60
2022-09-06T05:53:42.576Z,2.60
2022-09-06T05:56:10.677Z,2.50
2022-09-06T05:58:39.068Z,2.90
2022-09-06T06:01:08.453Z,3.10
2022-09-06T06:03:35.468Z,2.70
2022-09-06T06:06:02.426Z,3.20
2022-09-06T06:08:29.368Z,2.90
2022-09-06T06:11:00.366Z,3.00
2022-09-06T06:13:30.259Z,2.50
2022-09-06T06:15:57.290Z,2.30
2022-09-06T06:18:24.238Z,2.30
2022-09-06T06:20:52.122Z,2.90
2022-09-06T06:23:21.441Z,2.80
2022-09-06T06:25:48.495Z,2.80
2022-09-06T06:28:15.418Z,2.30
2022-09-06T06:30:42.467Z,2.60
2022-09-06T06:33:09.318Z,2.40
2022-09-06T06:35:39.948Z,2.60
2022-09-06T06:38:07.106Z,2.60
2022-09-06T06:40:35.160Z,2.50
2022-09-06T06:43:02.273Z,2.30
2022-09-06T06:45:33.569Z,2.70
2022-09-06T06:48:00.603Z,2.50
2022-09-06T06:50:28.405Z,2.30
2022-09-06T06:52:55.987Z,2.40
2022-09-06T06:55:23.222Z,2.80
2022-09-06T06:57:51.204Z,2.40
2022-09-06T07:00:18.484Z,2.40
2022-09-06T07:02:45.379Z,2.60
2022-09-06T07:08:00.314Z,2.40
2022-09-06T07:12:58.162Z,2.10
2022-09-06T07:15:25.420Z,2.30
2022-09-06T07:17:53.486Z,2.20
2022-09-06T07:20:20.830Z,2.20
2022-09-06T07:22:47.825Z,2.10
2022-09-06T07:25:21.240Z,2.30
2022-09-06T07:30:17.250Z,2.50
2022-09-06T07:32:44.380Z,2.50
2022-09-06T07:35:14.807Z,2.20
2022-09-06T07:37:45.555Z,2.40
2022-09-06T07:40:15.096Z,2.70
2022-09-06T07:42:42.852Z,2.20
2022-09-06T07:45:09.917Z,2.20
2022-09-06T07:53:16.699Z,2.00
2022-09-06T07:55:49.018Z,2.00
2022-09-06T07:58:20.695Z,1.80
2022-09-06T08:01:06.258Z,1.90
2022-09-06T08:03:33.300Z,2.20
2022-09-06T08:11:23.837Z,1.80
2022-09-06T08:13:53.438Z,1.90
2022-09-06T08:16:35.540Z,1.70
2022-09-06T08:19:05.195Z,1.60
2022-09-06T08:21:39.273Z,1.90
2022-09-06T08:24:08.793Z,1.90
2022-09-06T08:26:39.724Z,1.80
2022-09-06T08:29:08.992Z,1.80
2022-09-06T08:31:39.191Z,1.90
2022-09-06T08:34:06.646Z,2.10
2022-09-06T08:36:34.624Z,1.80
2022-09-06T08:39:07.037Z,2.00
2022-09-06T08:41:41.045Z,2.30
2022-09-06T08:47:04.819Z,1.70
2022-09-06T08:49:36.063Z,1.90
2022-09-06T08:52:26.949Z,2.00
2022-09-06T08:55:00.036Z,2.00
2022-09-06T08:57:37.039Z,2.00
2022-09-06T09:00:11.177Z,1.70
2022-09-06T09:02:50.332Z,1.80
2022-09-06T09:05:23.748Z,1.90
2022-09-06T09:07:55.205Z,2.00
2022-09-06T09:10:42.841Z,1.60
2022-09-06T09:13:23.091Z,2.00
2022-09-06T09:15:51.468Z,1.80
2022-09-06T09:18:24.914Z,1.80
2022-09-06T09:20:53.031Z,2.00
2022-09-06T09:23:20.101Z,1.50
2022-09-06T09:25:48.768Z,1.80
2022-09-06T09:28:19.348Z,1.50
2022-09-06T09:30:54.499Z,1.90
2022-09-06T09:33:39.520Z,1.90
2022-09-06T09:36:13.395Z,1.80
2022-09-06T09:38:45.455Z,1.90
2022-09-06T09:41:29.036Z,1.90
2022-09-06T09:44:04.191Z,2.00
2022-09-06T09:46:56.678Z,1.80
2022-09-06T09:49:28.428Z,2.00
2022-09-06T09:52:16.231Z,1.70
2022-09-06T09:54:45.630Z,1.40
2022-09-06T09:57:18.873Z,1.50
2022-09-06T09:59:57.945Z,2.00
2022-09-06T10:02:33.489Z,1.30
2022-09-06T10:05:07.345Z,1.50
2022-09-06T10:07:57.807Z,1.50
2022-09-06T10:10:29.229Z,1.40
2022-09-06T10:13:29.780Z,1.30
2022-09-06T10:16:08.752Z,1.40
2022-09-06T10:18:40.942Z,1.40
2022-09-06T10:21:14.024Z,1.50
2022-09-06T10:26:55.849Z,1.50
2022-09-06T10:29:32.699Z,1.40
2022-09-06T10:32:08.614Z,1.40
2022-09-06T10:34:51.852Z,1.40
2022-09-06T10:37:26.318Z,1.60
2022-09-06T10:39:58.347Z,1.40
2022-09-06T10:42:45.851Z,1.40
2022-09-06T10:45:19.110Z,1.40
2022-09-06T10:48:05.559Z,1.40
2022-09-06T10:50:36.283Z,1.20
2022-09-06T10:53:11.220Z,1.50
2022-09-06T10:55:41.344Z,1.30
2022-09-06T10:58:19.786Z,1.50
2022-09-06T11:00:49.967Z,1.70
2022-09-06T11:06:23.273Z,1.80
2022-09-06T11:08:58.485Z,1.60
2022-09-06T11:11:41.767Z,1.70
2022-09-06T11:15:09.428Z,1.80
2022-09-06T11:17:31.018Z,1.80
2022-09-06T11:20:17.779Z,1.50
2022-09-06T11:23:12.817Z,1.60
2022-09-06T11:25:59.208Z,1.70
2022-09-06T11:28:33.220Z,1.40
2022-09-06T11:31:00.813Z,1.80
2022-09-06T11:33:33.922Z,1.70
2022-09-06T11:36:33.261Z,1.70
2022-09-06T11:39:03.132Z,1.70
2022-09-06T11:42:02.655Z,1.50
2022-09-06T11:44:54.574Z,1.40
2022-09-06T11:47:41.514Z,1.30
2022-09-06T11:50:28.850Z,1.80
2022-09-06T11:53:17.272Z,1.80
2022-09-06T11:56:26.700Z,1.70
2022-09-06T11:58:59.961Z,1.90
2022-09-06T12:04:20.060Z,1.50
2022-09-06T12:07:11.751Z,1.70
2022-09-06T12:09:57.364Z,1.80
2022-09-06T12:12:42.066Z,1.60
2022-09-06T12:15:25.426Z,1.70
2022-09-06T12:17:53.047Z,1.80
2022-09-06T12:20:51.527Z,2.00
2022-09-06T12:23:35.897Z,1.70
2022-09-06T12:26:32.282Z,1.50
2022-09-06T12:29:00.274Z,1.80
2022-09-06T12:31:31.860Z,1.80
2022-09-06T12:34:14.058Z,1.70
2022-09-06T12:40:44.004Z,1.50
2022-09-06T12:43:16.184Z,2.10
2022-09-06T12:45:47.549Z,1.90
2022-09-06T12:48:32.783Z,1.80
2022-09-06T12:51:09.562Z,2.00
2022-09-06T12:53:37.177Z,1.80
2022-09-06T12:56:09.197Z,2.20
2022-09-06T12:58:37.596Z,1.60
2022-09-06T13:01:14.140Z,1.60
2022-09-06T13:03:45.939Z,1.70
2022-09-06T13:06:44.293Z,2.10
2022-09-06T13:09:14.837Z,1.80
2022-09-06T13:11:46.686Z,2.00
2022-09-06T13:14:20.046Z,1.70
2022-09-06T13:19:29.957Z,1.80
2022-09-06T13:21:58.654Z,1.90
2022-09-06T13:24:27.387Z,1.60
2022-09-06T13:26:54.976Z,1.90
2022-09-06T13:29:23.426Z,1.60
2022-09-06T13:31:52.680Z,1.80
2022-09-06T13:34:29.801Z,1.70
2022-09-06T13:37:03.994Z,1.90
2022-09-06T13:39:40.103Z,1.80
2022-09-06T13:42:10.801Z,1.70
2022-09-06T13:44:39.731Z,1.60
2022-09-06T13:47:06.666Z,1.80
2022-09-06T13:49:34.122Z,1.70
2022-09-06T13:52:03.972Z,2.00
2022-09-06T13:54:32.540Z,1.70
2022-09-06T13:57:01.943Z,2.00
2022-09-06T13:59:29.093Z,2.00
2022-09-06T14:02:04.955Z,1.90
2022-09-06T14:04:32.585Z,2.10
2022-09-06T14:06:59.866Z,2.30
2022-09-06T14:09:26.796Z,2.20
2022-09-06T14:12:40.872Z,2.20
2022-09-06T14:15:08.471Z,1.80
2022-09-06T14:17:35.336Z,2.30
2022-09-06T14:20:02.294Z,2.70
2022-09-06T14:22:30.452Z,2.20
2022-09-06T14:24:57.423Z,2.40
2022-09-06T14:27:24.455Z,2.10
2022-09-06T14:29:51.229Z,2.70
2022-09-06T14:32:22.347Z,2.10
2022-09-06T14:34:49.657Z,2.00
2022-09-06T14:37:16.495Z,1.90
2022-09-06T14:40:30.494Z,1.90
2022-09-06T14:42:58.247Z,2.10
2022-09-06T14:45:25.807Z,2.10
2022-09-06T14:47:52.911Z,2.00
2022-09-06T14:50:20.358Z,2.20
2022-09-06T14:52:48.472Z,2.30
2022-09-06T14:55:15.369Z,2.00
2022-09-06T14:57:42.298Z,2.40
2022-09-06T15:00:11.089Z,2.40
2022-09-06T15:02:38.079Z,2.10
2022-09-06T15:05:06.677Z,2.50
2022-09-06T15:07:33.537Z,2.10
2022-09-06T15:10:00.679Z,2.20
2022-09-06T15:12:27.481Z,1.40
2022-09-06T15:14:54.385Z,1.80
2022-09-06T15:17:21.216Z,1.90
2022-09-06T15:19:48.051Z,1.70
2022-09-06T15:22:14.886Z,1.60
2022-09-06T15:24:41.693Z,1.90
2022-09-06T15:27:08.509Z,1.90
2022-09-06T15:29:35.342Z,2.10
2022-09-06T15:32:02.340Z,1.90
2022-09-06T15:34:29.226Z,1.80
2022-09-06T15:36:57.248Z,1.90
2022-09-06T15:39:24.235Z,2.00
2022-09-06T15:41:51.920Z,1.90
2022-09-06T15:44:21.609Z,1.70
2022-09-06T15:46:54.082Z,1.90
2022-09-06T15:49:27.471Z,1.90
2022-09-06T15:51:57.057Z,2.00
2022-09-06T15:54:39.815Z,1.80
2022-09-06T15:57:07.670Z,1.70
2022-09-06T15:59:34.526Z,1.90
2022-09-06T16:02:01.488Z,1.80
2022-09-06T16:04:28.333Z,2.00
2022-09-06T16:06:56.823Z,2.10
2022-09-06T16:09:23.716Z,2.50
2022-09-06T16:11:50.580Z,2.20
2022-09-06T16:14:18.080Z,2.20
2022-09-06T16:16:45.684Z,2.20
2022-09-06T16:19:13.164Z,2.00
2022-09-06T16:21:42.053Z,1.90
2022-09-06T16:24:11.659Z,2.20
2022-09-06T16:26:42.511Z,2.20
2022-09-06T16:29:11.734Z,2.10
2022-09-06T16:31:40.508Z,2.30
2022-09-06T16:34:08.934Z,2.10
2022-09-06T16:36:35.995Z,2.30
2022-09-06T16:39:04.120Z,2.30
2022-09-06T16:41:39.502Z,2.20
2022-09-06T16:44:08.689Z,2.10
2022-09-06T16:46:35.705Z,2.30
2022-09-06T16:49:03.244Z,2.20
2022-09-06T16:51:31.456Z,2.70
2022-09-06T16:53:59.132Z,2.20
2022-09-06T16:56:29.341Z,2.60
2022-09-06T16:58:58.762Z,2.20
2022-09-06T17:01:27.410Z,2.80
2022-09-06T17:03:54.783Z,2.70
2022-09-06T17:06:23.137Z,2.60
2022-09-06T17:08:51.004Z,2.60
2022-09-06T17:11:20.695Z,2.90
2022-09-06T17:13:49.985Z,3.00
2022-09-06T17:16:34.586Z,2.90
2022-09-06T17:19:02.518Z,2.80
2022-09-06T17:21:29.925Z,2.60
2022-09-06T17:24:05.537Z,3.00
2022-09-06T17:26:35.134Z,3.40
2022-09-06T17:29:02.938Z,2.90
2022-09-06T17:31:29.892Z,2.90
2022-09-06T17:33:57.049Z,2.90
2022-09-06T17:36:26.752Z,3.00
2022-09-06T17:39:00.234Z,3.40
2022-09-06T17:41:31.095Z,3.30
2022-09-06T17:43:58.989Z,3.10
2022-09-06T17:46:28.862Z,2.90
2022-09-06T17:48:57.258Z,3.10
2022-09-06T17:51:25.301Z,3.00
2022-09-06T17:53:52.914Z,3.10
2022-09-06T17:56:21.074Z,3.30
2022-09-06T17:58:58.751Z,3.50
2022-09-06T18:01:29.602Z,3.10
2022-09-06T18:03:57.348Z,3.60
2022-09-06T18:06:26.330Z,3.40
2022-09-06T18:08:55.876Z,3.20
2022-09-06T18:11:25.808Z,3.40
2022-09-06T18:13:59.116Z,4.30
2022-09-06T18:16:27.355Z,4.60
2022-09-06T18:18:56.568Z,4.50
2022-09-06T18:21:26.690Z,4.00
2022-09-06T18:23:54.898Z,4.20
2022-09-06T18:26:22.008Z,5.20
2022-09-06T18:28:49.136Z,5.50
2022-09-06T18:31:19.048Z,5.50
2022-09-06T18:33:46.139Z,4.30
2022-09-06T18:36:15.723Z,3.80
2022-09-06T18:38:43.321Z,4.80
2022-09-06T18:41:27.827Z,4.60
2022-09-06T18:43:58.357Z,5.40
2022-09-06T18:46:41.002Z,4.80
2022-09-06T18:49:08.242Z,5.00
2022-09-06T18:51:35.198Z,6.00
2022-09-06T18:54:02.481Z,5.30
2022-09-06T18:56:29.383Z,4.80
2022-09-06T18:58:58.794Z,4.90
2022-09-06T19:01:29.300Z,4.20
2022-09-06T19:03:57.872Z,4.70
2022-09-06T19:06:26.576Z,4.90
2022-09-06T19:08:54.090Z,4.80
2022-09-06T19:11:22.229Z,5.20
2022-09-06T19:13:53.001Z,4.80
2022-09-06T19:16:21.414Z,4.70
2022-09-06T19:18:49.192Z,5.20
2022-09-06T19:21:18.651Z,4.70
2022-09-06T19:23:47.904Z,4.70
2022-09-06T19:26:18.346Z,4.20
2022-09-06T19:28:55.822Z,4.40
2022-09-06T19:31:29.651Z,4.70
2022-09-06T19:33:56.904Z,4.00
2022-09-06T19:36:25.989Z,4.10
2022-09-06T19:39:05.926Z,3.90
2022-09-06T19:41:36.586Z,3.80
2022-09-06T19:44:06.038Z,4.10
2022-09-06T19:46:33.695Z,3.80
2022-09-06T19:49:00.996Z,3.80
2022-09-06T19:51:28.050Z,3.50
2022-09-06T19:53:58.164Z,3.10
2022-09-06T19:56:31.828Z,3.40
2022-09-06T19:59:01.650Z,3.80
2022-09-06T20:01:31.162Z,3.70
2022-09-06T20:03:59.060Z,3.60
2022-09-06T20:06:26.982Z,3.30
2022-09-06T20:08:56.148Z,3.50
2022-09-06T20:11:25.937Z,3.30
2022-09-06T20:13:53.016Z,3.30
2022-09-06T20:16:21.200Z,3.40
2022-09-06T20:18:48.712Z,3.50
2022-09-06T20:21:17.786Z,3.30
2022-09-06T20:23:49.812Z,3.00
2022-09-06T20:26:18.059Z,3.30
2022-09-06T20:28:45.643Z,3.00
2022-09-06T20:31:16.537Z,2.90
2022-09-06T20:33:49.198Z,2.80
2022-09-06T20:36:17.663Z,2.90
2022-09-06T20:38:46.319Z,2.70
2022-09-06T20:41:16.907Z,2.50
2022-09-06T20:43:43.838Z,3.00
2022-09-06T20:46:18.082Z,2.10
2022-09-06T20:48:46.299Z,2.40
2022-09-06T20:51:15.979Z,2.70
2022-09-06T20:53:42.936Z,2.20
2022-09-06T20:56:13.217Z,2.80
2022-09-06T20:58:40.955Z,2.30
2022-09-06T21:01:10.399Z,2.30
2022-09-06T21:03:39.635Z,2.40
2022-09-06T21:06:08.741Z,2.40
2022-09-06T21:08:39.489Z,1.90
2022-09-06T21:11:10.436Z,2.40
2022-09-06T21:13:37.916Z,2.20
2022-09-06T21:16:05.783Z,2.10
2022-09-06T21:18:33.886Z,2.50
2022-09-06T21:21:04.861Z,2.20
2022-09-06T21:23:34.497Z,2.30
2022-09-06T21:26:03.987Z,2.10
2022-09-06T21:28:33.337Z,1.90
2022-09-06T21:31:02.434Z,1.80
2022-09-06T21:33:31.863Z,1.90
2022-09-06T21:36:03.422Z,1.80
2022-09-06T21:38:31.395Z,2.00
2022-09-06T21:40:58.639Z,1.60
2022-09-06T21:43:26.170Z,2.00
2022-09-06T21:45:53.190Z,2.10
2022-09-06T21:48:20.522Z,2.10
2022-09-06T21:50:48.960Z,1.90
2022-09-06T21:53:17.644Z,1.90
2022-09-06T21:55:45.291Z,2.00
2022-09-06T21:58:13.694Z,2.10
2022-09-06T22:00:41.636Z,1.80
2022-09-06T22:03:09.442Z,1.60
2022-09-06T22:05:36.421Z,1.70
2022-09-06T22:08:03.586Z,1.50
2022-09-06T22:10:30.560Z,1.80
2022-09-06T22:12:57.489Z,1.70
2022-09-06T22:15:24.420Z,1.90
2022-09-06T22:17:51.386Z,1.90
2022-09-06T22:20:18.412Z,1.90
2022-09-06T22:22:46.319Z,2.00
2022-09-06T22:25:14.411Z,1.90
2022-09-06T22:27:41.647Z,2.30
2022-09-06T22:30:09.246Z,2.10
2022-09-06T22:32:37.195Z,1.70
2022-09-06T22:35:06.162Z,2.00
2022-09-06T22:37:34.163Z,1.80
2022-09-06T22:40:02.303Z,1.60
2022-09-06T22:42:29.766Z,1.60
2022-09-06T22:44:57.160Z,1.70
2022-09-06T22:47:24.139Z,1.60
2022-09-06T22:49:51.951Z,1.70
2022-09-06T22:52:19.077Z,1.70
2022-09-06T22:54:46.017Z,1.50
2022-09-06T22:57:13.022Z,1.60
2022-09-06T22:59:40.344Z,1.60
2022-09-06T23:02:07.287Z,1.60
2022-09-06T23:04:34.397Z,1.50
2022-09-06T23:07:02.602Z,1.50
2022-09-06T23:09:29.538Z,1.40
2022-09-06T23:11:56.485Z,1.50
2022-09-06T23:14:23.436Z,1.30
2022-09-06T23:16:50.661Z,1.50
2022-09-06T23:19:17.589Z,1.40
2022-09-06T23:21:44.661Z,1.70
2022-09-06T23:24:11.659Z,1.40
2022-09-06T23:26:38.597Z,1.70
2022-09-06T23:29:05.843Z,1.60
2022-09-06T23:31:33.365Z,1.50
2022-09-06T23:34:02.372Z,1.40
2022-09-06T23:36:29.569Z,1.40
2022-09-06T23:38:57.339Z,1.90
2022-09-06T23:41:24.975Z,1.50
2022-09-06T23:43:51.932Z,1.60
2022-09-06T23:46:19.510Z,1.10
2022-09-06T23:48:46.496Z,1.40
2022-09-06T23:51:14.003Z,1.60
2022-09-06T23:53:41.508Z,1.90
2022-09-06T23:56:08.553Z,1.60
2022-09-06T23:58:35.630Z,1.80
